createdAt,value
2023-03-15T00:01:12.625Z,3.25
2023-03-15T00:05:08.725Z,3.38
2023-03-15T00:10:08.987Z,6.72
2023-03-15T00:15:08.077Z,6.57
2023-03-15T00:20:08.136Z,7.65
2023-03-15T00:25:08.212Z,4.20
2023-03-15T00:30:08.278Z,3.20
2023-03-15T00:35:08.326Z,2.65
2023-03-15T00:40:08.447Z,3.20
2023-03-15T00:45:08.603Z,2.30
2023-03-15T00:50:08.735Z,2.25
2023-03-15T00:55:08.851Z,1.95
2023-03-15T01:00:08.091Z,5.20
2023-03-15T01:05:08.122Z,2.22
2023-03-15T01:10:08.197Z,2.33
2023-03-15T01:15:08.259Z,2.55
2023-03-15T01:20:08.345Z,2.50
2023-03-15T01:25:08.445Z,2.53
2023-03-15T01:30:08.495Z,2.55
2023-03-15T01:35:08.530Z,2.90
2023-03-15T01:40:08.639Z,2.75
2023-03-15T01:45:08.668Z,2.70
2023-03-15T01:50:08.741Z,2.50
2023-03-15T01:55:08.836Z,2.45
2023-03-15T02:00:08.929Z,2.80
2023-03-15T02:05:08.948Z,3.22
2023-03-15T02:10:08.393Z,2.95
2023-03-15T02:15:08.480Z,2.40
2023-03-15T02:20:08.562Z,2.63
2023-03-15T02:25:08.624Z,2.40
2023-03-15T02:30:08.734Z,2.67
2023-03-15T02:35:08.820Z,2.38
2023-03-15T02:40:08.901Z,2.75
2023-03-15T02:45:08.927Z,2.25
2023-03-15T02:50:09.068Z,2.10
2023-03-15T02:55:08.158Z,2.22
2023-03-15T03:00:08.232Z,2.25
2023-03-15T03:05:08.318Z,2.63
2023-03-15T03:10:08.385Z,2.47
2023-03-15T03:15:08.432Z,2.42
2023-03-15T03:20:08.521Z,2.75
2023-03-15T03:25:08.618Z,2.50
2023-03-15T03:30:08.686Z,3.10
2023-03-15T03:35:08.744Z,2.65
2023-03-15T03:40:09.040Z,2.85
2023-03-15T03:45:08.103Z,2.97
2023-03-15T03:50:08.223Z,2.92
2023-03-15T03:55:08.254Z,2.90
2023-03-15T04:00:08.347Z,2.42
2023-03-15T04:05:08.395Z,2.35
2023-03-15T04:10:08.484Z,2.75
2023-03-15T04:15:08.592Z,3.65
2023-03-15T04:20:08.662Z,2.65
2023-03-15T04:25:08.703Z,2.80
2023-03-15T04:30:08.763Z,2.22
2023-03-15T04:35:08.836Z,2.00
2023-03-15T04:40:08.908Z,2.00
2023-03-15T04:45:09.000Z,2.10
2023-03-15T04:50:08.088Z,2.33
2023-03-15T04:55:08.175Z,2.42
2023-03-15T05:00:12.317Z,3.00
2023-03-15T05:05:20.824Z,2.95
2023-03-15T05:10:04.933Z,3.00
2023-03-15T05:15:04.930Z,2.60
2023-03-15T05:20:06.240Z,2.92
2023-03-15T05:25:06.442Z,2.67
2023-03-15T05:30:05.978Z,2.95
2023-03-15T05:35:03.028Z,2.80
2023-03-15T05:40:10.662Z,2.70
2023-03-15T05:45:04.354Z,3.45
2023-03-15T05:50:12.384Z,3.28
2023-03-15T05:55:10.715Z,4.03
2023-03-15T06:00:04.654Z,3.45
2023-03-15T06:05:05.360Z,3.78
2023-03-15T06:10:04.252Z,4.65
2023-03-15T06:15:03.639Z,3.80
2023-03-15T06:20:03.419Z,3.58
2023-03-15T06:25:05.465Z,4.13
2023-03-15T06:30:04.857Z,4.28
2023-03-15T06:35:03.633Z,4.40
2023-03-15T06:40:03.853Z,4.20
2023-03-15T06:45:03.276Z,5.40
2023-03-15T06:50:03.776Z,4.40
2023-03-15T06:55:04.633Z,6.15
2023-03-15T07:00:03.744Z,4.40
2023-03-15T07:05:06.620Z,5.32
2023-03-15T07:10:03.830Z,4.72
2023-03-15T07:15:06.861Z,6.82
2023-03-15T07:20:04.533Z,7.75
2023-03-15T07:25:03.860Z,10.18
2023-03-15T07:30:05.024Z,7.07
2023-03-15T07:35:04.225Z,9.05
2023-03-15T07:40:04.070Z,10.43
2023-03-15T07:45:04.024Z,7.60
2023-03-15T07:50:04.289Z,7.30
2023-03-15T07:55:04.512Z,8.13
2023-03-15T08:00:04.926Z,9.13
2023-03-15T08:05:05.350Z,6.50
2023-03-15T08:10:04.465Z,6.00
2023-03-15T08:15:04.815Z,6.88
2023-03-15T08:20:04.270Z,9.45
2023-03-15T08:25:03.961Z,5.90
2023-03-15T08:30:04.194Z,6.30
2023-03-15T08:35:02.731Z,7.97
2023-03-15T08:40:08.895Z,5.35
2023-03-15T08:45:06.449Z,6.70
2023-03-15T08:50:04.431Z,6.43
2023-03-15T08:55:05.394Z,7.75
2023-03-15T09:00:09.141Z,3.78
2023-03-15T09:05:05.543Z,5.22
2023-03-15T09:10:12.947Z,5.40
2023-03-15T09:15:03.869Z,3.40
2023-03-15T09:20:05.325Z,3.88
2023-03-15T09:25:03.367Z,2.45
2023-03-15T09:30:03.531Z,4.05
2023-03-15T09:35:05.982Z,4.55
2023-03-15T09:40:04.165Z,2.95
2023-03-15T09:45:04.176Z,2.88
2023-03-15T09:50:03.728Z,7.78
2023-03-15T09:55:03.795Z,3.78
2023-03-15T10:00:07.130Z,3.83
2023-03-15T10:05:03.243Z,8.52
2023-03-15T10:10:04.512Z,4.72
2023-03-15T10:15:03.669Z,3.20
2023-03-15T10:20:04.109Z,3.33
2023-03-15T10:25:06.474Z,3.35
2023-03-15T10:30:03.816Z,6.57
2023-03-15T10:35:04.043Z,3.42
2023-03-15T10:40:07.714Z,5.15
2023-03-15T10:45:05.517Z,3.97
2023-03-15T10:50:04.399Z,3.53
2023-03-15T10:55:06.862Z,7.63
2023-03-15T11:00:04.255Z,3.15
2023-03-15T11:05:04.777Z,3.65
2023-03-15T11:10:06.121Z,1.67
2023-03-15T11:15:04.363Z,2.20
2023-03-15T11:20:04.553Z,1.85
2023-03-15T11:25:10.268Z,2.70
2023-03-15T11:30:04.415Z,4.35
2023-03-15T11:35:04.953Z,2.45
2023-03-15T11:40:11.334Z,4.05
2023-03-15T11:45:03.513Z,4.50
2023-03-15T11:50:12.962Z,5.68
2023-03-15T11:55:03.209Z,1.63
2023-03-15T12:10:05.932Z,2.55
2023-03-15T12:15:12.244Z,0
2023-03-15T12:20:02.559Z,2.17
2023-03-15T12:25:02.824Z,4.18
2023-03-15T12:30:02.999Z,3.53
2023-03-15T12:35:02.518Z,2.88
2023-03-15T12:40:03.262Z,4.93
2023-03-15T12:45:02.670Z,3.47
2023-03-15T12:50:02.931Z,1.25
2023-03-15T12:55:03.718Z,2.92
2023-03-15T13:00:02.897Z,9.52
2023-03-15T13:05:03.275Z,7.50
2023-03-15T13:10:02.507Z,5.10
2023-03-15T13:15:02.901Z,2.40
2023-03-15T13:20:03.145Z,3.38
2023-03-15T13:25:02.518Z,6.78
2023-03-15T13:30:02.852Z,4.22
2023-03-15T13:35:03.067Z,1.73
2023-03-15T13:40:02.302Z,3.00
2023-03-15T13:45:08.345Z,2.17
2023-03-15T13:50:03.778Z,2.78
2023-03-15T13:55:02.982Z,2.35
2023-03-15T14:00:02.254Z,1.45
2023-03-15T14:05:02.561Z,2.53
2023-03-15T14:10:02.932Z,2.28
2023-03-15T14:15:03.175Z,3.03
2023-03-15T14:20:02.594Z,4.50
2023-03-15T14:25:02.807Z,2.17
2023-03-15T14:30:03.027Z,2.88
2023-03-15T14:35:02.287Z,2.05
2023-03-15T14:40:02.556Z,4.20
2023-03-15T14:45:02.835Z,3.05
2023-03-15T14:50:03.120Z,2.95
2023-03-15T14:55:02.642Z,1.75
2023-03-15T15:00:02.954Z,5.18
2023-03-15T15:05:02.452Z,4.18
2023-03-15T15:10:02.568Z,2.50
2023-03-15T15:15:02.768Z,3.95
2023-03-15T15:20:02.935Z,4.03
2023-03-15T15:25:02.259Z,1.73
2023-03-15T15:30:02.689Z,3.30
2023-03-15T15:35:02.941Z,1.95
2023-03-15T15:40:02.185Z,1.75
2023-03-15T15:45:02.383Z,1.23
2023-03-15T15:50:02.553Z,2.80
2023-03-15T15:55:02.648Z,1.30
2023-03-15T16:00:02.924Z,2.92
2023-03-15T16:05:03.014Z,1.35
2023-03-15T16:10:02.283Z,1.90
2023-03-15T16:15:02.520Z,3.45
2023-03-15T16:20:02.892Z,1.98
2023-03-15T16:25:03.037Z,1.95
2023-03-15T16:30:02.291Z,1.30
2023-03-15T16:35:02.591Z,1.75
2023-03-15T16:40:02.741Z,1.50
2023-03-15T16:45:03.005Z,1.67
2023-03-15T16:50:02.304Z,2.03
2023-03-15T16:55:02.581Z,1.98
2023-03-15T17:00:05.134Z,2.00
2023-03-15T17:05:02.573Z,3.13
2023-03-15T17:10:02.977Z,1.17
2023-03-15T17:15:02.201Z,1.40
2023-03-15T17:20:02.343Z,1.52
2023-03-15T17:25:02.593Z,3.20
2023-03-15T17:30:05.548Z,3.25
2023-03-15T17:35:02.814Z,1.63
2023-03-15T17:40:03.019Z,1.50
2023-03-15T17:45:02.787Z,1.15
2023-03-15T17:50:03.032Z,2.33
2023-03-15T17:55:02.306Z,2.35
2023-03-15T18:00:02.606Z,2.00
2023-03-15T18:05:02.915Z,4.50
2023-03-15T18:10:03.064Z,3.70
2023-03-15T18:15:02.276Z,1.92
2023-03-15T18:20:02.466Z,1.88
2023-03-15T18:25:02.646Z,2.00
2023-03-15T18:30:02.865Z,2.45
2023-03-15T18:35:03.004Z,2.47
2023-03-15T18:40:02.247Z,2.88
2023-03-15T18:45:02.471Z,2.80
2023-03-15T18:50:10.100Z,3.58
2023-03-15T18:55:02.764Z,2.88
2023-03-15T19:00:02.993Z,2.50
2023-03-15T19:05:02.638Z,2.22
2023-03-15T19:10:02.871Z,4.18
2023-03-15T19:15:03.163Z,3.85
2023-03-15T19:20:02.475Z,2.55
2023-03-15T19:25:04.094Z,3.03
2023-03-15T19:30:02.306Z,4.63
2023-03-15T19:35:02.803Z,3.58
2023-03-15T19:40:03.086Z,4.60
2023-03-15T19:45:02.341Z,4.45
2023-03-15T19:50:02.558Z,2.72
2023-03-15T19:55:02.777Z,2.47
2023-03-15T20:00:03.017Z,3.08
2023-03-15T20:05:02.206Z,2.45
2023-03-15T20:10:02.512Z,3.13
2023-03-15T20:15:02.953Z,2.95
2023-03-15T20:20:02.185Z,3.08
2023-03-15T20:25:02.362Z,2.08
2023-03-15T20:30:02.534Z,3.03
2023-03-15T20:35:03.019Z,3.35
2023-03-15T20:40:02.209Z,4.72
2023-03-15T20:45:02.400Z,3.63
2023-03-15T20:50:02.621Z,5.20
2023-03-15T20:55:02.824Z,4.07
2023-03-15T21:00:02.999Z,3.80
2023-03-15T21:05:02.521Z,3.28
2023-03-15T21:10:02.695Z,6.18
2023-03-15T21:15:02.968Z,5.07
2023-03-15T21:20:02.209Z,2.28
2023-03-15T21:25:02.511Z,3.53
2023-03-15T21:30:02.722Z,4.40
2023-03-15T21:35:03.094Z,3.28
2023-03-15T21:40:02.325Z,2.95
2023-03-15T21:45:02.522Z,5.07
2023-03-15T21:50:02.759Z,4.30
2023-03-15T21:55:03.084Z,2.10
2023-03-15T22:00:02.212Z,4.25
2023-03-15T22:05:15.222Z,3.38
2023-03-15T22:10:08.272Z,5.20
2023-03-15T22:15:08.411Z,4.78
2023-03-15T22:20:08.474Z,3.03
2023-03-15T22:25:08.523Z,5.32
2023-03-15T22:30:08.585Z,5.18
2023-03-15T22:35:08.674Z,3.45
2023-03-15T22:40:08.790Z,4.63
2023-03-15T22:45:08.828Z,5.63
2023-03-15T22:50:08.946Z,3.53
2023-03-15T22:55:08.042Z,5.10
2023-03-15T23:00:12.927Z,5.45
2023-03-15T23:05:07.964Z,4.30
2023-03-15T23:10:08.042Z,5.65
2023-03-15T23:15:08.131Z,7.80
2023-03-15T23:20:08.304Z,6.43
2023-03-15T23:25:08.366Z,4.88
2023-03-15T23:30:08.389Z,4.95
2023-03-15T23:35:08.443Z,3.67
2023-03-15T23:40:08.525Z,7.35
2023-03-15T23:45:08.614Z,5.15
2023-03-15T23:50:09.048Z,8.23
2023-03-15T23:55:08.100Z,5.53
